Time;durP1;ratioP1;P1;durP2;ratioP2;P2;SDS_P1;SDS_P2;PMS_P1;PMS_P2;Temp;Humidity;BMP_temperature;BMP_pressure;BME280_temperature;BME280_humidity;BME280_pressure;Samples;Min_cycle;Max_cycle;Signal;HPM_P1;HPM_P2
2023/04/01 00:01:16;;;;;;;;;;;11.80;94.00;;;11.09;78.52;98301.00;5091455;28;19924;-83
2023/04/01 00:03:45;;;;;;;;;;;11.80;94.00;;;11.03;78.94;98304.75;5095938;28;19973;-82
2023/04/01 00:06:13;;;;;;;;;;;11.80;94.20;;;11.07;78.98;98311.13;5100479;28;19959;-83
2023/04/01 00:08:40;;;;;;;;;;;11.80;94.20;;;11.07;78.94;98300.44;5105170;28;19934;-82
2023/04/01 00:11:08;;;;;;;;;;;11.80;94.20;;;11.13;78.68;98297.81;5106019;28;20390;-82
2023/04/01 00:13:35;;;;;;;;;;;11.80;94.00;;;11.17;78.50;98286.31;5090273;28;19939;-82
2023/04/01 00:16:03;;;;;;;;;;;11.80;94.00;;;11.17;78.13;98304.97;5097263;28;19928;-82
2023/04/01 00:18:31;;;;;;;;;;;11.80;93.80;;;11.15;78.20;98291.13;5089046;28;19935;-84
2023/04/01 00:20:59;;;;;;;;;;;11.80;93.80;;;11.15;78.26;98301.00;5080755;28;19931;-81
2023/04/01 00:23:27;;;;;;;;;;;11.80;93.80;;;11.19;78.06;98302.88;5111392;28;19931;-82
2023/04/01 00:25:54;;;;;;;;;;;11.90;93.70;;;11.20;78.07;98293.78;5106558;28;19928;-83
2023/04/01 00:28:21;;;;;;;;;;;11.90;93.80;;;11.17;78.15;98291.66;5086943;28;19928;-81
2023/04/01 00:30:48;;;;;;;;;;;11.80;93.70;;;11.15;78.32;98288.47;5087946;28;19974;-81
2023/04/01 00:33:16;;;;;;;;;;;11.80;94.00;;;11.12;78.45;98290.84;5072053;28;20427;-82
2023/04/01 00:35:43;;;;;;;;;;;11.80;94.00;;;11.09;78.35;98292.22;5072168;28;19935;-82
2023/04/01 00:38:11;;;;;;;;;;;11.80;93.90;;;11.08;78.83;98291.41;5082628;28;19924;-81
2023/04/01 00:40:41;;;;;;;;;;;11.70;94.10;;;11.08;78.66;98294.06;5104056;28;19928;-81
2023/04/01 00:43:12;;;;;;;;;;;11.80;94.10;;;11.09;78.65;98293.00;5110977;28;19927;-82
2023/04/01 00:45:41;;;;;;;;;;;11.80;94.10;;;11.07;78.66;98284.44;5088596;28;20350;-85
2023/04/01 00:48:11;;;;;;;;;;;11.80;94.10;;;11.10;78.49;98280.47;5077891;28;19969;-82
2023/04/01 00:50:40;;;;;;;;;;;11.80;94.10;;;11.13;78.61;98285.28;5097318;28;19967;-83
2023/04/01 00:53:08;;;;;;;;;;;11.80;93.90;;;11.15;78.48;98291.13;5084889;28;19928;-82
2023/04/01 00:55:40;;;;;;;;;;;11.90;93.90;;;11.15;78.23;98275.13;5069975;28;19931;-81
2023/04/01 00:58:10;;;;;;;;;;;11.90;93.90;;;11.07;78.26;98279.13;5077694;28;19931;-81
2023/04/01 01:00:37;;;;;;;;;;;11.80;93.90;;;11.11;78.52;98292.72;5069394;28;19928;-81
2023/04/01 01:03:04;;;;;;;;;;;11.80;94.00;;;11.10;78.59;98288.47;5069263;28;20005;-81
2023/04/01 01:05:39;;;;;;;;;;;11.80;94.10;;;11.06;78.98;98287.41;5074671;28;19959;-81
2023/04/01 01:08:15;;;;;;;;;;;11.80;94.20;;;11.03;79.02;98282.63;5079928;28;19928;-82
2023/04/01 01:10:48;;;;;;;;;;;11.80;94.40;;;11.02;79.13;98289.78;5093025;28;19932;-81
2023/04/01 01:13:18;;;;;;;;;;;11.80;94.40;;;11.05;79.12;98280.47;5071368;28;19935;-80
2023/04/01 01:15:47;;;;;;;;;;;11.80;94.20;;;11.05;78.91;98288.47;5068594;28;19928;-81
2023/04/01 01:18:21;;;;;;;;;;;11.70;94.20;;;11.03;78.82;98283.41;5086075;28;20391;-83
2023/04/01 01:21:11;;;;;;;;;;;11.80;94.20;;;11.01;78.78;98279.41;5093059;28;20459;-81
2023/04/01 01:24:08;;;;;;;;;;;11.70;94.20;;;11.02;78.82;98284.44;5063642;28;20486;-83
2023/04/01 01:26:56;;;;;;;;;;;11.70;94.20;;;11.05;78.82;98272.47;5049725;28;20026;-82
2023/04/01 01:29:42;;;;;;;;;;;11.80;94.20;;;11.04;78.85;98281.53;5079647;28;19982;-84
2023/04/01 01:32:19;;;;;;;;;;;11.70;94.20;;;11.00;78.96;98275.94;5091963;28;20404;-82
2023/04/01 01:34:54;;;;;;;;;;;11.70;94.30;;;10.95;78.86;98278.59;5093850;28;20388;-82
2023/04/01 01:37:25;;;;;;;;;;;11.80;94.20;;;10.93;79.47;98286.09;5069510;28;19931;-85
2023/04/01 01:39:56;;;;;;;;;;;11.60;94.50;;;10.95;79.50;98285.81;5095988;28;19928;-83
2023/04/01 01:42:25;;;;;;;;;;;11.60;94.60;;;10.98;79.36;98283.41;5072676;28;19928;-82
2023/04/01 01:44:54;;;;;;;;;;;11.70;94.60;;;11.01;79.12;98277.53;5079051;28;19928;-83
2023/04/01 01:47:22;;;;;;;;;;;11.70;94.40;;;11.01;79.08;98268.72;5091203;28;19977;-82
2023/04/01 01:49:49;;;;;;;;;;;11.70;94.40;;;11.02;78.85;98278.31;5074486;28;19928;-82
2023/04/01 01:52:18;;;;;;;;;;;11.70;94.30;;;10.98;78.49;98274.59;5072979;28;19928;-80
2023/04/01 01:54:50;;;;;;;;;;;11.70;94.30;;;10.94;79.05;98279.69;5075097;28;19928;-82
2023/04/01 01:57:20;;;;;;;;;;;11.70;94.50;;;10.98;79.02;98264.75;5081476;28;19928;-82
2023/04/01 01:59:53;;;;;;;;;;;11.60;94.40;;;11.00;78.85;98275.13;5078705;28;20215;-80
2023/04/01 02:02:25;;;;;;;;;;;11.70;94.10;;;10.98;78.61;98270.09;5083689;28;19928;-82
2023/04/01 02:04:53;;;;;;;;;;;11.70;94.00;;;10.98;78.72;98263.91;5088847;28;19943;-82
2023/04/01 02:07:24;;;;;;;;;;;11.70;94.10;;;11.00;78.39;98261.81;5089935;28;19934;-81
2023/04/01 02:09:53;;;;;;;;;;;11.70;94.00;;;11.02;78.66;98270.31;5066358;28;20011;-84
2023/04/01 02:12:22;;;;;;;;;;;11.80;94.20;;;11.02;78.62;98270.31;5078147;28;20006;-81
2023/04/01 02:14:52;;;;;;;;;;;11.70;94.10;;;11.02;78.67;98270.31;5072992;28;19928;-84
2023/04/01 02:17:21;;;;;;;;;;;11.70;94.20;;;10.97;78.82;98275.66;5071140;28;20544;-85
2023/04/01 02:19:51;;;;;;;;;;;11.70;94.30;;;10.95;79.07;98273.28;5090942;28;19924;-84
2023/04/01 02:22:22;;;;;;;;;;;11.60;94.20;;;10.94;78.98;98277.00;5074745;28;19959;-82
2023/04/01 02:24:50;;;;;;;;;;;11.60;94.20;;;10.95;78.82;98272.47;5101854;28;19960;-83
2023/04/01 02:27:19;;;;;;;;;;;11.60;94.30;;;10.94;79.08;98277.00;5072967;28;19924;-83
2023/04/01 02:29:46;;;;;;;;;;;11.60;94.30;;;10.92;78.73;98273.78;5074683;28;19924;-84
2023/04/01 02:32:13;;;;;;;;;;;11.60;94.20;;;10.91;79.02;98284.75;5072808;28;20438;-81
2023/04/01 02:34:41;;;;;;;;;;;11.70;94.40;;;10.94;79.14;98289.56;5082916;28;19967;-84
2023/04/01 02:37:08;;;;;;;;;;;11.70;94.40;;;10.87;79.33;98281.78;5110822;28;20499;-81
2023/04/01 02:39:35;;;;;;;;;;;11.60;94.60;;;10.87;79.56;98283.66;5095159;28;19928;-82
2023/04/01 02:42:02;;;;;;;;;;;11.60;94.60;;;10.88;79.73;98280.72;5086217;28;19934;-84
2023/04/01 02:44:31;;;;;;;;;;;11.60;94.70;;;10.92;79.63;98283.66;5072833;28;19931;-84
2023/04/01 02:46:59;;;;;;;;;;;11.60;94.60;;;10.92;79.49;98286.34;5090997;28;20034;-82
2023/04/01 02:49:26;;;;;;;;;;;11.60;94.50;;;10.91;79.46;98279.41;5094772;28;19976;-83
2023/04/01 02:51:53;;;;;;;;;;;11.60;94.60;;;10.90;79.66;98289.28;5095170;28;19934;-81
2023/04/01 02:54:20;;;;;;;;;;;11.60;94.60;;;10.91;79.53;98282.06;5083594;28;19924;-84
2023/04/01 02:56:47;;;;;;;;;;;11.60;94.60;;;10.88;79.64;98285.25;5077940;28;19930;-81
2023/04/01 02:59:14;;;;;;;;;;;11.50;94.80;;;10.89;79.87;98287.69;5071160;28;20024;-82
2023/04/01 03:01:43;;;;;;;;;;;11.60;94.80;;;10.91;79.67;98284.75;5094735;28;20026;-81
2023/04/01 03:04:10;;;;;;;;;;;11.60;94.70;;;10.92;79.66;98289.78;5085584;28;19996;-81
2023/04/01 03:06:37;;;;;;;;;;;11.60;94.70;;;10.95;79.77;98293.81;5105595;28;20360;-81
2023/04/01 03:09:04;;;;;;;;;;;11.80;94.90;;;10.95;79.73;98291.13;5094765;28;19967;-81
2023/04/01 03:11:31;;;;;;;;;;;11.60;94.80;;;10.97;79.66;98284.47;5075079;28;20029;-81
2023/04/01 03:13:58;;;;;;;;;;;11.60;94.70;;;10.96;79.76;98292.72;5081356;28;19981;-83
2023/04/01 03:16:25;;;;;;;;;;;11.60;94.80;;;10.97;79.44;98291.66;5071770;28;20366;-82
2023/04/01 03:18:56;;;;;;;;;;;11.60;94.70;;;10.90;79.88;98291.94;5090939;28;19928;-84
2023/04/01 03:21:24;;;;;;;;;;;11.60;95.00;;;10.87;80.06;98286.34;5091035;28;20438;-83
2023/04/01 03:23:52;;;;;;;;;;;11.60;95.20;;;10.87;80.06;98297.78;5090382;28;19928;-83
2023/04/01 03:26:19;;;;;;;;;;;11.60;95.20;;;10.90;80.11;98291.94;5072735;28;19924;-81
2023/04/01 03:28:46;;;;;;;;;;;11.60;95.00;;;10.88;80.20;98301.25;5081866;28;19928;-82
2023/04/01 03:31:14;;;;;;;;;;;11.60;95.10;;;10.89;80.19;98297.56;5091456;28;19928;-85
2023/04/01 03:33:48;;;;;;;;;;;11.60;95.20;;;10.86;80.21;98304.19;5074392;28;19935;-82
2023/04/01 03:36:16;;;;;;;;;;;11.50;95.20;;;10.86;80.38;98301.53;5089463;28;19935;-82
2023/04/01 03:38:44;;;;;;;;;;;11.50;95.30;;;10.83;80.73;98307.38;5072606;28;19939;-82
2023/04/01 03:41:14;;;;;;;;;;;11.50;95.50;;;10.81;80.78;98314.88;5072430;28;20395;-82
2023/04/01 03:43:42;;;;;;;;;;;11.50;95.50;;;10.80;80.96;98314.06;5075454;28;19927;-84
2023/04/01 03:46:09;;;;;;;;;;;11.50;95.80;;;10.82;80.75;98317.25;5076031;28;19936;-83
2023/04/01 03:48:36;;;;;;;;;;;11.50;95.70;;;10.82;80.65;98309.25;5091597;28;20018;-81
2023/04/01 03:51:07;;;;;;;;;;;11.50;95.80;;;10.85;80.68;98312.47;5090389;28;20344;-80
2023/04/01 03:53:35;;;;;;;;;;;11.40;95.50;;;10.88;80.60;98317.25;5072829;28;20304;-82
2023/04/01 03:56:06;;;;;;;;;;;11.50;95.40;;;10.91;80.36;98312.19;5072817;28;20392;-83
2023/04/01 03:58:34;;;;;;;;;;;11.50;95.40;;;10.91;80.48;98314.88;5073264;28;19928;-81
2023/04/01 04:01:02;;;;;;;;;;;11.50;95.50;;;10.91;80.46;98312.19;5072785;28;20031;-81
2023/04/01 04:03:30;;;;;;;;;;;11.60;95.40;;;10.91;80.52;98311.41;5083883;28;19934;-81
2023/04/01 04:05:57;;;;;;;;;;;11.60;95.40;;;10.94;80.30;98313.56;5078614;28;19935;-81
2023/04/01 04:08:24;;;;;;;;;;;11.60;95.30;;;10.96;80.23;98314.88;5079060;28;19931;-84
2023/04/01 04:10:57;;;;;;;;;;;11.60;95.30;;;10.96;80.12;98319.41;5073396;28;19932;-82
2023/04/01 04:13:24;;;;;;;;;;;11.60;95.20;;;10.93;80.28;98320.75;5075386;28;19927;-81
2023/04/01 04:15:59;;;;;;;;;;;11.60;95.20;;;10.95;80.17;98317.81;5084722;28;19934;-82
2023/04/01 04:18:26;;;;;;;;;;;11.60;95.20;;;10.96;80.01;98324.75;5078206;28;19937;-81
2023/04/01 04:20:53;;;;;;;;;;;11.70;95.20;;;10.95;80.06;98313.28;5094338;28;19963;-84
2023/04/01 04:23:21;;;;;;;;;;;11.60;95.20;;;10.94;80.05;98322.34;5072120;28;19935;-81
2023/04/01 04:25:57;;;;;;;;;;;11.60;95.20;;;10.92;80.06;98321.00;5080883;28;20269;-82
2023/04/01 04:28:25;;;;;;;;;;;11.60;95.20;;;10.91;80.27;98322.88;5072067;28;19936;-81
2023/04/01 04:30:53;;;;;;;;;;;11.60;95.30;;;10.93;80.16;98319.94;5080974;28;19924;-81
2023/04/01 04:33:21;;;;;;;;;;;11.60;95.20;;;10.90;80.20;98326.59;5083374;28;21726;-84
2023/04/01 04:35:48;;;;;;;;;;;11.60;95.20;;;10.91;80.31;98322.88;5071303;28;19924;-83
2023/04/01 04:38:16;;;;;;;;;;;11.80;95.30;;;10.88;80.50;98334.06;5077795;28;20459;-82
2023/04/01 04:40:44;;;;;;;;;;;11.60;95.40;;;10.88;80.42;98330.59;5083410;28;20540;-82
2023/04/01 04:43:15;;;;;;;;;;;11.60;95.40;;;10.83;80.63;98326.88;5085621;28;19928;-82
2023/04/01 04:45:42;;;;;;;;;;;11.50;95.60;;;10.86;80.43;98330.06;5079421;28;20050;-82
2023/04/01 04:48:10;;;;;;;;;;;11.50;95.60;;;10.86;80.42;98335.41;5070681;28;19928;-81
2023/04/01 04:50:38;;;;;;;;;;;11.50;95.50;;;10.87;80.60;98337.00;5071896;28;19924;-81
2023/04/01 04:53:05;;;;;;;;;;;11.50;95.50;;;10.86;80.50;98340.75;5069639;28;20023;-82
2023/04/01 04:55:33;;;;;;;;;;;11.50;95.40;;;10.86;80.58;98340.75;5079569;28;19924;-83
2023/04/01 04:58:25;;;;;;;;;;;11.60;95.40;;;10.89;80.38;98338.34;5099445;28;19927;-83
2023/04/01 05:00:52;;;;;;;;;;;11.60;95.30;;;10.91;80.36;98346.88;5086434;28;19962;-82
2023/04/01 05:03:24;;;;;;;;;;;11.60;95.20;;;10.91;80.24;98340.75;5071132;28;19967;-83
2023/04/01 05:05:52;;;;;;;;;;;11.60;95.40;;;10.89;80.47;98345.56;5074898;28;19981;-82
2023/04/01 05:08:19;;;;;;;;;;;11.60;95.50;;;10.90;80.39;98339.16;5074073;28;19977;-83
2023/04/01 05:10:47;;;;;;;;;;;11.70;95.60;;;10.91;80.55;98344.22;5081622;28;20301;-81
2023/04/01 05:13:14;;;;;;;;;;;11.60;95.40;;;10.94;80.36;98342.88;5087279;28;19960;-82
2023/04/01 05:15:43;;;;;;;;;;;11.60;95.30;;;10.94;80.38;98346.34;5075708;28;20052;-81
2023/04/01 05:18:10;;;;;;;;;;;11.60;95.40;;;10.92;80.49;98345.78;5071102;28;19963;-83
2023/04/01 05:20:37;;;;;;;;;;;11.60;95.40;;;10.91;80.41;98349.53;5083573;28;19934;-80
2023/04/01 05:23:04;;;;;;;;;;;11.60;95.40;;;10.92;80.62;98350.34;5079324;28;20300;-81
2023/04/01 05:25:31;;;;;;;;;;;11.60;95.50;;;10.91;80.74;98340.75;5074536;28;20359;-83
2023/04/01 05:27:59;;;;;;;;;;;11.60;95.50;;;10.90;80.70;98352.47;5078126;28;20007;-83
2023/04/01 05:30:26;;;;;;;;;;;11.60;95.70;;;10.88;80.80;98351.94;5086065;28;19963;-82
2023/04/01 05:33:08;;;;;;;;;;;11.50;95.60;;;10.90;80.69;98360.47;5071353;28;20020;-82
2023/04/01 05:35:35;;;;;;;;;;;11.60;95.60;;;10.93;80.70;98357.25;5071404;28;20363;-82
2023/04/01 05:38:02;;;;;;;;;;;11.60;95.60;;;10.92;80.88;98361.00;5070599;28;19970;-81
2023/04/01 05:40:30;;;;;;;;;;;11.60;95.80;;;10.89;80.79;98358.88;5075562;28;19924;-80
2023/04/01 05:42:57;;;;;;;;;;;11.60;95.80;;;10.89;80.85;98359.69;5087439;28;19935;-81
2023/04/01 05:45:24;;;;;;;;;;;11.60;95.80;;;10.87;81.03;98361.00;5079610;28;19924;-83
2023/04/01 05:48:11;;;;;;;;;;;11.60;95.90;;;10.88;81.08;98362.59;5089267;28;20669;-78
2023/04/01 05:50:41;;;;;;;;;;;11.60;95.90;;;10.87;81.15;98369.00;5096351;28;19935;-78
2023/04/01 05:53:09;;;;;;;;;;;11.60;96.00;;;10.88;81.36;98365.25;5070690;28;19924;-77
2023/04/01 05:55:37;;;;;;;;;;;11.60;96.00;;;10.90;81.07;98363.16;5073067;28;19924;-76
2023/04/01 05:58:05;;;;;;;;;;;11.60;95.80;;;10.91;81.04;98364.75;5074153;28;20015;-77
2023/04/01 06:00:36;;;;;;;;;;;11.60;95.80;;;10.82;81.43;98370.59;5076926;28;19939;-78
2023/04/01 06:03:03;;;;;;;;;;;11.50;96.20;;;10.82;81.55;98378.59;5074226;28;19976;-76
2023/04/01 06:05:39;;;;;;;;;;;11.50;96.30;;;10.81;81.76;98371.66;5092351;28;20023;-79
2023/04/01 06:08:14;;;;;;;;;;;11.50;96.20;;;10.82;81.75;98378.59;5092701;28;19959;-76
2023/04/01 06:11:00;;;;;;;;;;;11.50;96.20;;;10.79;81.83;98373.81;5073859;28;19993;-77
2023/04/01 06:13:41;;;;;;;;;;;11.50;96.40;;;10.83;81.75;98374.88;5076568;28;20010;-77
2023/04/01 06:16:13;;;;;;;;;;;11.50;96.40;;;10.85;81.77;98387.13;5077732;28;19932;-77
2023/04/01 06:18:51;;;;;;;;;;;11.50;96.40;;;10.88;81.53;98383.94;5073050;28;20392;-78
2023/04/01 06:21:41;;;;;;;;;;;11.60;96.20;;;10.92;81.47;98387.66;5073201;28;20020;-76
2023/04/01 06:24:29;;;;;;;;;;;11.60;96.20;;;10.86;81.55;98384.19;5076540;28;19963;-77
2023/04/01 06:27:01;;;;;;;;;;;11.60;96.20;;;10.87;81.73;98391.13;5090929;28;19931;-78
2023/04/01 06:29:56;;;;;;;;;;;11.60;96.20;;;10.91;81.82;98396.75;5074272;28;19935;-79
2023/04/01 06:32:51;;;;;;;;;;;11.60;96.40;;;10.89;81.84;98398.88;5060184;28;19927;-79
2023/04/01 06:35:27;;;;;;;;;;;11.60;96.50;;;10.91;81.78;98402.88;5072200;28;20001;-78
2023/04/01 06:38:14;;;;;;;;;;;11.60;96.30;;;10.94;81.75;98396.22;5085129;28;20306;-76
2023/04/01 06:41:12;;;;;;;;;;;11.60;96.20;;;10.94;81.66;98405.03;5073929;28;20334;-77
2023/04/01 06:43:50;;;;;;;;;;;11.60;96.40;;;10.94;81.71;98397.03;5093078;28;20272;-76
2023/04/01 06:46:43;;;;;;;;;;;11.60;96.40;;;10.95;81.80;98408.50;5087546;28;19953;-78
2023/04/01 06:49:45;;;;;;;;;;;11.70;96.50;;;10.88;81.85;98406.06;5086423;28;19935;-77
2023/04/01 06:52:37;;;;;;;;;;;11.60;96.60;;;10.86;82.23;98408.19;5084584;28;19935;-77
2023/04/01 06:55:43;;;;;;;;;;;11.60;96.70;;;10.85;82.22;98403.13;5093846;28;20400;-77
2023/04/01 06:58:23;;;;;;;;;;;11.60;96.70;;;10.86;82.22;98400.19;5066030;28;19928;-78
2023/04/01 07:00:52;;;;;;;;;;;11.60;96.60;;;10.90;82.35;98411.94;5072336;28;19928;-77
2023/04/01 07:03:24;;;;;;;;;;;11.60;96.80;;;10.91;82.20;98413.53;5085779;28;19928;-78
2023/04/01 07:05:52;;;;;;;;;;;11.60;96.70;;;10.87;82.15;98412.47;5082193;28;19960;-78
2023/04/01 07:08:23;;;;;;;;;;;11.60;96.60;;;10.88;82.37;98410.59;5066007;28;19932;-78
2023/04/01 07:10:56;;;;;;;;;;;11.60;96.80;;;10.89;82.68;98418.34;5076152;28;19924;-77
2023/04/01 07:13:50;;;;;;;;;;;11.60;96.80;;;10.90;82.58;98417.28;5058558;28;19928;-78
2023/04/01 07:16:22;;;;;;;;;;;11.60;96.90;;;10.94;82.42;98425.56;5073099;28;20452;-79
2023/04/01 07:18:51;;;;;;;;;;;11.60;96.90;;;10.94;82.27;98417.56;5073002;28;19935;-79
2023/04/01 07:21:27;;;;;;;;;;;11.60;96.60;;;10.95;82.23;98424.50;5075461;28;19928;-77
2023/04/01 07:24:02;;;;;;;;;;;11.60;96.70;;;10.95;82.09;98424.50;5085286;28;19981;-78
2023/04/01 07:26:44;;;;;;;;;;;11.70;96.80;;;10.88;82.26;98423.94;5072444;28;19934;-77
2023/04/01 07:29:15;;;;;;;;;;;11.60;96.80;;;10.87;82.47;98427.66;5082653;28;20015;-76
2023/04/01 07:32:04;;;;;;;;;;;11.70;97.00;;;10.82;82.88;98437.25;5068893;28;20022;-76
2023/04/01 07:34:36;;;;;;;;;;;11.50;97.20;;;10.85;82.71;98432.47;5073047;28;19928;-75
2023/04/01 07:37:10;;;;;;;;;;;11.60;97.00;;;10.84;82.57;98439.69;5062348;28;20023;-76
2023/04/01 07:39:44;;;;;;;;;;;11.60;97.00;;;10.79;82.81;98437.00;5078062;28;20303;-77
2023/04/01 07:42:25;;;;;;;;;;;11.50;97.10;;;10.79;83.37;98437.00;5074560;28;19928;-77
2023/04/01 07:44:58;;;;;;;;;;;11.50;97.60;;;10.77;83.39;98441.78;5076818;28;19931;-78
2023/04/01 07:47:45;;;;;;;;;;;11.50;97.50;;;10.80;83.44;98443.91;5089924;28;19925;-77
2023/04/01 07:50:21;;;;;;;;;;;11.50;97.80;;;10.80;83.67;98446.59;5089094;28;20363;-75
2023/04/01 07:52:55;;;;;;;;;;;11.50;97.80;;;10.85;83.67;98454.59;5079818;28;19971;-77
2023/04/01 07:55:29;;;;;;;;;;;11.50;97.70;;;10.87;83.45;98452.47;5073698;28;19927;-76
2023/04/01 07:58:05;;;;;;;;;;;11.60;97.60;;;10.87;83.18;98460.47;5075653;28;20389;-76
2023/04/01 08:00:41;;;;;;;;;;;11.60;97.40;;;10.85;83.11;98462.59;5073872;28;19928;-77
2023/04/01 08:03:34;;;;;;;;;;;11.50;97.40;;;10.85;83.07;98467.13;5089768;28;19967;-75
2023/04/01 08:06:06;;;;;;;;;;;11.60;97.30;;;10.83;83.15;98462.88;5071475;28;20398;-76
2023/04/01 08:08:42;;;;;;;;;;;11.50;97.40;;;10.82;83.12;98469.25;5070210;28;19928;-75
2023/04/01 08:11:41;;;;;;;;;;;11.50;97.70;;;10.81;83.49;98472.97;5089537;28;19935;-76
2023/04/01 08:14:33;;;;;;;;;;;11.50;97.80;;;10.80;83.52;98476.72;5088108;28;20071;-76
2023/04/01 08:17:25;;;;;;;;;;;11.50;97.90;;;10.76;83.24;98480.97;5090553;28;19935;-75
2023/04/01 08:20:04;;;;;;;;;;;11.50;97.60;;;10.78;83.47;98480.69;5089573;28;19924;-75
2023/04/01 08:22:39;;;;;;;;;;;11.50;97.80;;;10.80;83.76;98481.25;5081430;28;19924;-77
2023/04/01 08:25:18;;;;;;;;;;;11.50;98.00;;;10.79;83.82;98491.13;5070112;28;19939;-75
2023/04/01 08:27:47;;;;;;;;;;;11.50;97.90;;;10.79;83.77;98498.31;5080326;28;19928;-76
2023/04/01 08:30:21;;;;;;;;;;;11.50;98.00;;;10.77;83.86;98505.75;5072515;28;19935;-76
2023/04/01 08:32:52;;;;;;;;;;;11.50;98.10;;;10.78;83.87;98507.34;5078249;28;20343;-74
2023/04/01 08:35:27;;;;;;;;;;;11.50;98.10;;;10.81;84.21;98509.50;5081953;28;20326;-77
2023/04/01 08:37:58;;;;;;;;;;;11.50;98.10;;;10.77;84.25;98509.22;5083826;28;19967;-75
2023/04/01 08:40:42;;;;;;;;;;;11.50;98.30;;;10.77;84.51;98514.56;5078293;28;20360;-76
2023/04/01 08:43:17;;;;;;;;;;;11.50;98.50;;;10.77;84.54;98508.44;5070291;28;19924;-77
2023/04/01 08:46:18;;;;;;;;;;;11.50;98.50;;;10.78;84.72;98520.69;5088569;28;20411;-77
2023/04/01 08:49:05;;;;;;;;;;;11.50;98.60;;;10.80;84.70;98523.91;5075223;28;20364;-77
2023/04/01 08:52:11;;;;;;;;;;;11.50;98.60;;;10.83;84.60;98524.22;5091297;28;20303;-76
2023/04/01 08:54:47;;;;;;;;;;;11.50;98.50;;;10.82;84.14;98517.25;4970493;28;19934;-78
2023/04/01 08:57:30;;;;;;;;;;;11.50;98.30;;;10.78;84.67;98532.19;5063079;28;19928;-75
2023/04/01 09:00:33;;;;;;;;;;;11.50;98.60;;;10.80;84.66;98535.38;5074639;28;19924;-77
2023/04/01 09:03:51;;;;;;;;;;;11.50;98.50;;;10.79;84.46;98533.78;5069125;28;19932;-74
2023/04/01 09:06:39;;;;;;;;;;;11.50;98.50;;;10.80;84.59;98538.06;5069943;28;19939;-76
2023/04/01 09:09:45;;;;;;;;;;;11.50;98.50;;;10.80;84.84;98547.91;5075277;28;19981;-75
2023/04/01 09:12:26;;;;;;;;;;;11.50;98.60;;;10.82;84.82;98543.91;5043159;28;19994;-74
2023/04/01 09:15:13;;;;;;;;;;;11.50;98.60;;;10.85;85.17;98545.28;5070833;28;19924;-76
2023/04/01 09:18:02;;;;;;;;;;;11.50;98.90;;;10.82;85.47;98553.78;5071045;28;19930;-77
2023/04/01 09:21:11;;;;;;;;;;;11.50;99.30;;;10.84;85.40;98549.00;5062190;28;19935;-77
2023/04/01 09:23:48;;;;;;;;;;;11.60;98.90;;;10.86;85.49;98548.75;5093833;28;19928;-77
2023/04/01 09:26:29;;;;;;;;;;;11.60;99.00;;;10.81;85.34;98558.31;5078951;28;20421;-75
2023/04/01 09:29:03;;;;;;;;;;;11.50;99.00;;;10.79;85.48;98557.78;5079310;28;19934;-76
2023/04/01 09:31:44;;;;;;;;;;;11.50;99.00;;;10.82;85.70;98564.44;5075988;28;19930;-77
2023/04/01 09:34:55;;;;;;;;;;;11.50;99.10;;;10.87;85.58;98566.34;5073222;28;19924;-76
2023/04/01 09:37:35;;;;;;;;;;;11.60;99.10;;;10.91;85.27;98578.09;5071714;28;19950;-77
2023/04/01 09:40:19;;;;;;;;;;;11.60;98.90;;;10.92;85.64;98582.34;5078334;28;19928;-75
2023/04/01 09:43:30;;;;;;;;;;;11.60;98.90;;;10.95;85.49;98579.19;5080671;28;20647;-77
2023/04/01 09:46:13;;;;;;;;;;;11.70;99.00;;;10.96;85.28;98578.91;5070841;28;20311;-76
2023/04/01 09:49:08;;;;;;;;;;;11.70;98.90;;;10.97;85.30;98587.72;5091420;28;20383;-74
2023/04/01 09:51:42;;;;;;;;;;;11.70;98.90;;;10.99;85.44;98581.06;5075039;28;20018;-75
2023/04/01 09:54:29;;;;;;;;;;;11.70;99.10;;;11.01;85.36;98586.13;5073093;28;20014;-79
2023/04/01 09:57:14;;;;;;;;;;;11.80;98.90;;;11.02;85.83;98585.88;5071236;28;20356;-78
2023/04/01 10:00:04;;;;;;;;;;;11.80;99.20;;;11.06;86.23;98588.81;5070327;28;19985;-80
2023/04/01 10:03:19;;;;;;;;;;;11.80;99.50;;;11.10;86.24;98597.91;5084882;28;19928;-75
2023/04/01 10:06:24;;;;;;;;;;;11.80;99.60;;;11.17;86.49;98595.78;5099240;28;20515;-79
2023/04/01 10:09:28;;;;;;;;;;;11.80;99.50;;;11.18;86.27;98592.09;5081908;28;19928;-77
2023/04/01 10:12:21;;;;;;;;;;;11.90;99.50;;;11.22;86.41;98601.16;5070720;28;19928;-78
2023/04/01 10:15:21;;;;;;;;;;;11.90;99.70;;;11.25;86.39;98605.19;5075268;28;19993;-77
2023/04/01 10:18:15;;;;;;;;;;;12.00;99.60;;;11.26;85.87;98604.91;5077790;28;19981;-80
2023/04/01 10:21:01;;;;;;;;;;;12.00;99.50;;;11.25;86.01;98608.66;5027836;28;19928;-79
2023/04/01 10:24:21;;;;;;;;;;;12.00;99.20;;;11.27;86.28;98619.88;5063197;28;19927;-78
2023/04/01 10:27:31;;;;;;;;;;;12.00;99.50;;;11.27;86.14;98614.53;5032472;28;19965;-79
2023/04/01 10:30:30;;;;;;;;;;;12.00;99.30;;;11.29;86.08;98617.75;5033612;28;19935;-79
2023/04/01 10:33:32;;;;;;;;;;;12.00;99.40;;;11.32;86.30;98617.22;5070868;28;20415;-81
2023/04/01 10:36:28;;;;;;;;;;;12.00;99.50;;;11.29;86.01;98616.94;5071240;28;20019;-79
2023/04/01 10:39:21;;;;;;;;;;;12.00;99.30;;;11.28;86.37;98616.13;5089031;28;20057;-77
2023/04/01 10:42:19;;;;;;;;;;;12.00;99.50;;;11.28;86.31;98616.13;5064722;28;19924;-79
2023/04/01 10:45:39;;;;;;;;;;;12.00;99.60;;;11.29;86.36;98617.75;5088570;28;19949;-79
2023/04/01 10:48:15;;;;;;;;;;;12.10;99.40;;;11.32;86.29;98619.91;5074283;28;19928;-76
2023/04/01 10:51:21;;;;;;;;;;;12.10;99.50;;;11.33;86.28;98629.50;5070222;28;20342;-79
2023/04/01 10:54:18;;;;;;;;;;;12.10;99.30;;;11.34;86.25;98625.75;5062691;28;20000;-78
2023/04/01 10:57:50;;;;;;;;;;;12.10;99.30;;;11.33;86.06;98634.03;5046985;28;20038;-78
2023/04/01 11:01:10;;;;;;;;;;;12.10;99.30;;;11.28;86.14;98634.03;5062443;28;20403;-80
2023/04/01 11:04:32;;;;;;;;;;;12.00;99.30;;;11.24;86.61;98633.72;5084983;28;19939;-77
2023/04/01 11:07:56;;;;;;;;;;;12.00;99.60;;;11.27;86.43;98646.56;5091399;28;20043;-80
2023/04/01 11:10:45;;;;;;;;;;;12.00;99.50;;;11.23;86.62;98650.00;5078884;28;19934;-80
2023/04/01 11:13:51;;;;;;;;;;;12.00;99.60;;;11.22;86.23;98653.72;5071214;28;20418;-76
2023/04/01 11:16:56;;;;;;;;;;;12.00;99.60;;;11.20;86.08;98662.00;5074618;28;19927;-78
2023/04/01 11:19:50;;;;;;;;;;;11.90;99.40;;;11.21;86.20;98660.13;5091697;28;20307;-78
2023/04/01 11:23:00;;;;;;;;;;;11.90;99.50;;;11.23;86.68;98663.34;5074286;28;19934;-80
2023/04/01 11:25:46;;;;;;;;;;;12.00;99.80;;;11.25;87.00;98664.69;5014559;28;19936;-76
2023/04/01 11:29:05;;;;;;;;;;;12.00;99.80;;;11.28;86.62;98674.84;5099222;28;20113;-78
2023/04/01 11:31:40;;;;;;;;;;;12.00;99.70;;;11.27;87.00;98670.59;5074345;28;19934;-78
2023/04/01 11:34:17;;;;;;;;;;;12.00;99.90;;;11.25;86.63;98679.91;5087628;28;19979;-78
2023/04/01 11:36:55;;;;;;;;;;;12.00;99.90;;;11.27;86.83;98680.44;5075062;28;20489;-78
2023/04/01 11:39:32;;;;;;;;;;;12.00;99.90;;;11.30;87.00;98679.91;5089453;28;19927;-79
2023/04/01 11:42:28;;;;;;;;;;;12.00;99.90;;;11.35;87.31;98686.09;5096959;28;20384;-77
2023/04/01 11:45:23;;;;;;;;;;;12.10;99.90;;;11.38;87.28;98686.63;5097289;28;19935;-78
2023/04/01 11:48:15;;;;;;;;;;;12.10;99.90;;;11.37;87.32;98688.50;5069660;28;19939;-81
2023/04/01 11:51:16;;;;;;;;;;;12.10;99.90;;;11.38;87.47;98695.44;5069368;28;19928;-79
2023/04/01 11:53:50;;;;;;;;;;;12.10;99.90;;;11.40;87.91;98692.50;5072441;28;19928;-79
2023/04/01 11:56:32;;;;;;;;;;;12.10;99.90;;;11.41;87.91;98699.44;5070977;28;19928;-79
2023/04/01 11:59:12;;;;;;;;;;;12.10;99.90;;;11.42;87.37;98701.88;5083728;28;19969;-80
2023/04/01 12:01:57;;;;;;;;;;;12.20;99.90;;;11.43;87.32;98702.69;5087775;28;20388;-80
2023/04/01 12:04:42;;;;;;;;;;;12.20;99.90;;;11.45;87.34;98712.00;5094646;28;19944;-79
2023/04/01 12:07:20;;;;;;;;;;;12.20;99.90;;;11.46;87.37;98713.63;5088166;28;19975;-80